Time;durP1;ratioP1;P1;durP2;ratioP2;P2;SDS_P1;SDS_P2;PMS_P1;PMS_P2;Temp;Humidity;BMP_temperature;BMP_pressure;BME280_temperature;BME280_humidity;BME280_pressure;Samples;Min_cycle;Max_cycle;Signal;HPM_P1;HPM_P2
2024/03/25 00:01:43;;;;;;;22.77;8.52;;;;;;;5.23;100.00;100878.78;5270456;28;20023;-73
2024/03/25 00:04:13;;;;;;;32.80;9.98;;;;;;;5.22;100.00;100885.06;5275700;28;20396;-72
2024/03/25 00:06:44;;;;;;;21.73;8.05;;;;;;;5.23;100.00;100889.44;5273561;28;20377;-74
2024/03/25 00:09:14;;;;;;;24.33;9.43;;;;;;;5.15;100.00;100890.06;5273975;28;20096;-74
2024/03/25 00:11:45;;;;;;;29.60;9.93;;;;;;;5.04;100.00;100887.50;5273498;28;20012;-74
2024/03/25 00:14:15;;;;;;;20.50;8.73;;;;;;;4.97;100.00;100884.50;5275158;28;20473;-74
2024/03/25 00:16:46;;;;;;;22.88;8.85;;;;;;;4.96;100.00;100887.28;5275726;28;20473;-72
2024/03/25 00:19:16;;;;;;;28.05;9.52;;;;;;;4.98;100.00;100886.19;5277231;28;20076;-73
2024/03/25 00:21:47;;;;;;;28.77;10.00;;;;;;;5.02;100.00;100890.28;5273113;28;20042;-74
2024/03/25 00:24:17;;;;;;;32.53;11.57;;;;;;;5.03;100.00;100891.13;5272019;28;20020;-74
2024/03/25 00:26:48;;;;;;;25.05;9.18;;;;;;;5.03;100.00;100886.66;5272422;28;20057;-74
2024/03/25 00:29:18;;;;;;;32.17;10.60;;;;;;;5.05;100.00;100887.34;5271866;28;20024;-74
2024/03/25 00:31:49;;;;;;;23.23;9.55;;;;;;;5.03;100.00;100884.00;5271444;28;20470;-74
2024/03/25 00:34:19;;;;;;;21.83;9.07;;;;;;;5.02;100.00;100884.09;5271766;28;20106;-74
2024/03/25 00:36:50;;;;;;;31.60;9.40;;;;;;;5.02;100.00;100884.97;5269848;28;20392;-73
2024/03/25 00:39:21;;;;;;;22.48;8.85;;;;;;;5.00;100.00;100878.06;5274905;28;20024;-74
2024/03/25 00:41:52;;;;;;;32.58;9.63;;;;;;;4.99;100.00;100879.91;5273355;28;20127;-72
2024/03/25 00:44:23;;;;;;;23.13;9.07;;;;;;;4.93;100.00;100875.94;5272219;28;20094;-72
2024/03/25 00:46:54;;;;;;;21.55;9.15;;;;;;;4.86;100.00;100874.75;5274025;28;20039;-72
2024/03/25 00:49:25;;;;;;;26.13;9.88;;;;;;;4.79;100.00;100865.63;5271836;28;20020;-72
2024/03/25 00:51:56;;;;;;;20.73;8.15;;;;;;;4.72;100.00;100869.78;5273111;28;20106;-73
2024/03/25 00:54:26;;;;;;;28.02;9.68;;;;;;;4.66;100.00;100871.09;5275314;28;20096;-73
2024/03/25 00:56:57;;;;;;;26.17;8.55;;;;;;;4.62;100.00;100874.16;5274474;28;20019;-72
2024/03/25 00:59:27;;;;;;;24.27;8.98;;;;;;;4.55;100.00;100867.66;5274415;28;20031;-73
2024/03/25 01:01:58;;;;;;;28.67;10.25;;;;;;;4.50;100.00;100872.50;5271890;28;20032;-72
2024/03/25 01:04:28;;;;;;;20.90;8.60;;;;;;;4.49;100.00;100868.16;5272321;28;20028;-72
2024/03/25 01:06:59;;;;;;;24.45;8.85;;;;;;;4.42;100.00;100865.19;5274873;28;20024;-74
2024/03/25 01:09:29;;;;;;;26.85;9.20;;;;;;;4.37;100.00;100865.56;5272469;28;20362;-74
2024/03/25 01:12:00;;;;;;;34.50;10.50;;;;;;;4.32;100.00;100859.78;5273851;28;20076;-74
2024/03/25 01:14:30;;;;;;;24.58;8.52;;;;;;;4.30;100.00;100863.53;5270976;28;20042;-72
2024/03/25 01:17:01;;;;;;;27.73;9.98;;;;;;;4.34;100.00;100863.16;5274160;28;20024;-74
2024/03/25 01:19:31;;;;;;;28.20;10.18;;;;;;;4.40;100.00;100859.13;5272696;28;20377;-74
2024/03/25 01:22:02;;;;;;;26.60;10.52;;;;;;;4.41;100.00;100858.16;5272203;28;20057;-74
2024/03/25 01:24:32;;;;;;;21.35;10.10;;;;;;;4.37;100.00;100857.59;5270535;28;20020;-74
2024/03/25 01:27:03;;;;;;;29.40;9.05;;;;;;;4.33;100.00;100850.84;5272866;28;20020;-72
2024/03/25 01:29:34;;;;;;;30.02;9.77;;;;;;;4.29;100.00;100843.25;5271844;28;20028;-73
2024/03/25 01:32:05;;;;;;;23.58;9.63;;;;;;;4.21;100.00;100838.53;5273401;28;20178;-73
2024/03/25 01:34:35;;;;;;;24.20;8.85;;;;;;;4.15;100.00;100836.41;5271975;27;20016;-73
2024/03/25 01:37:06;;;;;;;26.05;8.55;;;;;;;4.10;100.00;100841.25;5272375;28;20026;-73
2024/03/25 01:39:38;;;;;;;19.63;8.93;;;;;;;4.11;100.00;100846.41;5271849;28;20505;-74
2024/03/25 01:42:09;;;;;;;21.75;8.50;;;;;;;4.13;100.00;100838.34;5271367;28;20477;-73
2024/03/25 01:44:39;;;;;;;23.10;9.13;;;;;;;4.09;100.00;100837.75;5270313;28;20020;-72
2024/03/25 01:47:10;;;;;;;24.40;9.52;;;;;;;4.01;100.00;100834.00;5275579;28;20031;-73
2024/03/25 01:49:40;;;;;;;27.00;10.85;;;;;;;3.93;100.00;100841.78;5269314;28;20023;-73
2024/03/25 01:52:11;;;;;;;20.55;9.27;;;;;;;3.84;100.00;100838.88;5273463;28;20031;-73
2024/03/25 01:54:42;;;;;;;23.00;8.13;;;;;;;3.73;100.00;100841.56;5269331;28;20056;-72
2024/03/25 01:57:13;;;;;;;26.45;8.73;;;;;;;3.66;100.00;100836.84;5271097;28;20027;-74
2024/03/25 01:59:44;;;;;;;22.55;9.13;;;;;;;3.60;100.00;100828.41;5268037;28;20426;-72
2024/03/25 02:02:14;;;;;;;27.45;10.27;;;;;;;3.60;100.00;100833.72;5272772;28;20051;-74
2024/03/25 02:04:45;;;;;;;34.58;11.90;;;;;;;3.62;100.00;100826.50;5268170;28;20016;-73
2024/03/25 02:07:16;;;;;;;25.55;9.57;;;;;;;3.69;100.00;100829.50;5275680;28;20075;-73
2024/03/25 02:09:48;;;;;;;24.55;9.48;;;;;;;3.74;100.00;100818.53;5268227;28;20086;-74
2024/03/25 02:12:22;;;;;;;24.38;10.45;;;;;;;3.78;100.00;100823.47;5267332;28;20024;-72
2024/03/25 02:14:53;;;;;;;23.48;10.40;;;;;;;3.78;100.00;100820.81;5267702;28;20085;-73
2024/03/25 02:17:23;;;;;;;24.73;8.50;;;;;;;3.78;100.00;100819.97;5273353;27;20030;-74
2024/03/25 02:19:54;;;;;;;27.83;9.25;;;;;;;3.75;100.00;100814.88;5271624;28;20020;-73
2024/03/25 02:22:25;;;;;;;25.42;10.32;;;;;;;3.75;100.00;100810.41;5268644;28;20056;-74
2024/03/25 02:24:57;;;;;;;25.58;9.93;;;;;;;3.70;100.00;100809.09;5270964;28;20012;-73
2024/03/25 02:27:28;;;;;;;23.30;9.82;;;;;;;3.61;100.00;100798.28;5272573;27;20027;-73
2024/03/25 02:30:13;;;;;;;23.67;9.40;;;;;;;3.54;100.00;100791.75;5271887;28;20031;-74
2024/03/25 02:32:55;;;;;;;16.60;8.18;;;;;;;3.48;100.00;100791.41;5267509;28;20049;-74
2024/03/25 02:35:26;;;;;;;20.45;8.35;;;;;;;3.45;100.00;100789.00;5270770;28;20054;-74
2024/03/25 02:37:57;;;;;;;27.08;9.75;;;;;;;3.40;100.00;100786.72;5272325;28;20012;-74
2024/03/25 02:40:28;;;;;;;22.15;8.20;;;;;;;3.36;100.00;100790.56;5266139;28;20027;-74
2024/03/25 02:42:59;;;;;;;22.92;9.23;;;;;;;3.29;100.00;100790.22;5267111;28;20032;-74
2024/03/25 02:45:29;;;;;;;23.58;8.95;;;;;;;3.29;100.00;100784.06;5266936;28;20090;-73
2024/03/25 02:48:00;;;;;;;24.85;8.35;;;;;;;3.30;100.00;100783.94;5263544;28;20031;-74
2024/03/25 02:50:30;;;;;;;22.25;8.48;;;;;;;3.26;100.00;100777.22;5263322;28;20135;-74
2024/03/25 02:53:01;;;;;;;25.98;9.77;;;;;;;3.27;100.00;100786.84;5271522;28;20030;-74
2024/03/25 02:55:32;;;;;;;24.80;10.50;;;;;;;3.30;100.00;100783.94;5272138;28;20031;-74
2024/03/25 02:58:03;;;;;;;48.47;16.58;;;;;;;3.25;100.00;100780.81;5267559;28;20036;-73
2024/03/25 03:00:34;;;;;;;47.40;15.45;;;;;;;3.19;100.00;100780.47;5272193;28;20024;-74
2024/03/25 03:03:04;;;;;;;65.60;24.00;;;;;;;3.15;100.00;100786.97;5268492;28;20478;-74
2024/03/25 03:05:35;;;;;;;79.78;30.08;;;;;;;3.04;100.00;100780.69;5267175;28;20016;-72
2024/03/25 03:08:11;;;;;;;47.55;19.23;;;;;;;2.96;100.00;100787.53;5268820;28;20023;-73
2024/03/25 03:10:41;;;;;;;51.80;19.25;;;;;;;2.90;100.00;100782.72;5267479;28;20028;-73
2024/03/25 03:13:12;;;;;;;109.70;34.83;;;;;;;2.88;100.00;100779.34;5271613;28;20026;-74
2024/03/25 03:15:44;;;;;;;63.00;20.83;;;;;;;2.88;100.00;100782.84;5270682;28;20598;-74
2024/03/25 03:18:15;;;;;;;57.03;20.50;;;;;;;2.93;100.00;100772.72;5275014;28;20031;-73
2024/03/25 03:20:47;;;;;;;52.53;20.95;;;;;;;2.98;100.00;100775.88;5271002;28;20098;-74
2024/03/25 03:23:18;;;;;;;58.55;19.70;;;;;;;2.97;100.00;100773.34;5265470;28;20030;-74
2024/03/25 03:25:49;;;;;;;46.88;17.38;;;;;;;2.91;100.00;100773.78;5267466;28;20012;-71
2024/03/25 03:28:20;;;;;;;39.30;16.50;;;;;;;2.85;100.00;100775.13;5271605;28;20376;-73
2024/03/25 03:30:50;;;;;;;43.47;16.52;;;;;;;2.82;100.00;100773.56;5267287;28;20023;-73
2024/03/25 03:33:21;;;;;;;42.15;16.25;;;;;;;2.81;100.00;100768.38;5265878;28;20531;-73
2024/03/25 03:35:52;;;;;;;38.90;15.13;;;;;;;2.79;100.00;100772.94;5267190;28;20016;-73
2024/03/25 03:38:23;;;;;;;38.67;16.17;;;;;;;2.74;100.00;100775.94;5267223;28;20027;-74
2024/03/25 03:41:01;;;;;;;38.42;15.10;;;;;;;2.67;100.00;100771.25;5267146;28;20020;-73
2024/03/25 03:43:32;;;;;;;40.22;15.45;;;;;;;2.61;100.00;100769.91;5271933;28;20024;-73
2024/03/25 03:46:03;;;;;;;41.33;15.52;;;;;;;2.60;100.00;100761.09;5275411;28;20024;-74
2024/03/25 03:48:35;;;;;;;34.75;13.70;;;;;;;2.54;100.00;100763.38;5271935;28;20497;-73
2024/03/25 03:51:06;;;;;;;31.63;12.13;;;;;;;2.55;100.00;100757.97;5273121;28;20027;-72
2024/03/25 03:53:37;;;;;;;31.95;12.27;;;;;;;2.56;100.00;100767.63;5272049;28;20024;-73
2024/03/25 03:56:07;;;;;;;34.63;12.70;;;;;;;2.54;100.00;100760.72;5276983;28;20111;-73
2024/03/25 03:58:38;;;;;;;28.40;12.30;;;;;;;2.51;100.00;100758.31;5269764;28;20097;-74
2024/03/25 04:01:18;;;;;;;28.52;11.43;;;;;;;2.48;100.00;100753.25;5273091;28;20130;-73
2024/03/25 04:03:49;;;;;;;25.88;11.07;;;;;;;2.43;100.00;100747.47;5267474;28;20508;-73
2024/03/25 04:06:19;;;;;;;23.67;10.60;;;;;;;2.45;100.00;100741.09;5271972;28;20098;-73
2024/03/25 04:08:50;;;;;;;26.33;10.93;;;;;;;2.48;100.00;100740.03;5269343;28;20370;-72
2024/03/25 04:11:20;;;;;;;29.42;12.23;;;;;;;2.44;100.00;100744.69;5270507;28;20032;-73
2024/03/25 04:13:51;;;;;;;25.05;10.93;;;;;;;2.39;100.00;100751.31;5268677;28;20012;-74
2024/03/25 04:16:22;;;;;;;27.60;9.50;;;;;;;2.31;100.00;100752.75;5272206;28;20604;-73
2024/03/25 04:18:53;;;;;;;25.50;9.65;;;;;;;2.20;100.00;100762.44;5267032;28;20444;-74
2024/03/25 04:21:24;;;;;;;19.90;8.75;;;;;;;2.20;100.00;100755.31;5273016;28;20027;-73
2024/03/25 04:23:54;;;;;;;22.13;9.43;;;;;;;2.10;100.00;100754.31;5267983;28;20028;-72
2024/03/25 04:26:25;;;;;;;24.42;9.20;;;;;;;2.06;100.00;100763.47;5272136;28;20098;-73
2024/03/25 04:28:55;;;;;;;23.45;9.45;;;;;;;2.08;100.00;100759.75;5268865;28;20024;-73
2024/03/25 04:31:26;;;;;;;32.00;9.55;;;;;;;2.05;100.00;100756.47;5271246;28;20030;-73
2024/03/25 04:33:56;;;;;;;26.13;9.50;;;;;;;2.04;100.00;100758.28;5271915;28;20031;-73
2024/03/25 04:36:27;;;;;;;24.92;9.13;;;;;;;1.99;100.00;100757.78;5266604;28;20023;-72
2024/03/25 04:38:57;;;;;;;22.60;8.93;;;;;;;2.06;100.00;100763.47;5268750;28;20031;-73
2024/03/25 04:41:28;;;;;;;24.05;9.00;;;;;;;2.08;100.00;100761.56;5265974;28;20080;-73
2024/03/25 04:43:58;;;;;;;28.05;9.50;;;;;;;2.08;100.00;100759.75;5265716;28;20386;-74
2024/03/25 04:46:28;;;;;;;31.08;10.73;;;;;;;2.14;100.00;100758.44;5269637;28;20024;-74
2024/03/25 04:48:59;;;;;;;26.80;10.27;;;;;;;2.17;100.00;100758.22;5269678;28;20031;-73
2024/03/25 04:51:31;;;;;;;33.47;9.65;;;;;;;2.22;100.00;100761.38;5270155;28;20024;-73
2024/03/25 04:54:02;;;;;;;24.40;9.57;;;;;;;2.27;100.00;100753.09;5272605;28;20047;-73
2024/03/25 04:56:33;;;;;;;22.77;8.82;;;;;;;2.27;100.00;100759.22;5270723;27;20516;-72
2024/03/25 04:59:03;;;;;;;23.50;9.57;;;;;;;2.27;100.00;100747.78;5272820;28;20024;-71
2024/03/25 05:01:33;;;;;;;26.30;8.95;;;;;;;2.23;100.00;100749.81;5270217;28;20036;-73
2024/03/25 05:04:04;;;;;;;25.33;9.27;;;;;;;2.24;100.00;100753.31;5268813;28;20028;-73
2024/03/25 05:06:35;;;;;;;24.80;8.65;;;;;;;2.21;100.00;100749.09;5266316;28;20189;-73
2024/03/25 05:09:06;;;;;;;18.25;7.65;;;;;;;2.16;100.00;100745.97;5269366;28;20031;-73
2024/03/25 05:11:37;;;;;;;28.55;9.15;;;;;;;2.15;100.00;100751.34;5269606;28;20062;-73
2024/03/25 05:14:07;;;;;;;22.10;8.68;;;;;;;2.17;100.00;100749.44;5269248;28;20473;-72
2024/03/25 05:16:38;;;;;;;24.55;9.50;;;;;;;2.16;100.00;100753.03;5270141;28;20020;-72
2024/03/25 05:19:08;;;;;;;30.38;9.65;;;;;;;2.18;100.00;100743.19;5272357;28;20074;-73
2024/03/25 05:21:38;;;;;;;21.83;9.38;;;;;;;2.16;100.00;100745.97;5267167;28;20034;-73
2024/03/25 05:24:09;;;;;;;35.10;9.20;;;;;;;2.16;100.00;100748.59;5268648;28;20023;-73
2024/03/25 05:26:39;;;;;;;27.60;9.18;;;;;;;2.17;100.00;100745.00;5270067;28;20031;-71
2024/03/25 05:29:10;;;;;;;25.60;9.23;;;;;;;2.19;100.00;100743.06;5268628;28;20027;-73
2024/03/25 05:31:57;;;;;;;29.52;10.38;;;;;;;2.19;100.00;100740.41;5267669;28;20024;-73
2024/03/25 05:34:28;;;;;;;27.10;9.90;;;;;;;2.21;100.00;100733.22;5263165;28;20626;-73
2024/03/25 05:36:59;;;;;;;30.08;9.38;;;;;;;2.23;100.00;100728.63;5266297;28;20020;-72
2024/03/25 05:39:30;;;;;;;31.40;9.68;;;;;;;2.24;100.00;100732.13;5264711;28;20085;-71
2024/03/25 05:42:00;;;;;;;29.38;10.40;;;;;;;2.21;100.00;100727.94;5269523;28;20035;-72
2024/03/25 05:44:31;;;;;;;26.67;8.15;;;;;;;2.21;100.00;100727.06;5261260;28;20027;-73
2024/03/25 05:47:02;;;;;;;24.33;7.70;;;;;;;2.22;100.00;100729.59;5269819;28;20027;-73
2024/03/25 05:49:32;;;;;;;24.00;7.97;;;;;;;2.26;100.00;100730.19;5267717;28;20396;-72
2024/03/25 05:52:03;;;;;;;22.08;8.05;;;;;;;2.37;100.00;100732.91;5269078;28;20024;-73
2024/03/25 05:54:33;;;;;;;26.02;10.48;;;;;;;2.43;100.00;100724.47;5265183;28;20726;-73
2024/03/25 05:57:04;;;;;;;26.95;10.30;;;;;;;2.51;100.00;100732.69;5273132;28;20366;-73
2024/03/25 05:59:34;;;;;;;25.27;9.13;;;;;;;2.62;100.00;100729.22;5267090;28;20427;-72
2024/03/25 06:02:05;;;;;;;22.85;8.20;;;;;;;2.72;100.00;100730.19;5269668;28;20020;-71
2024/03/25 06:04:35;;;;;;;26.17;9.80;;;;;;;2.82;100.00;100722.38;5266226;28;20061;-73
2024/03/25 06:07:06;;;;;;;24.50;9.70;;;;;;;2.96;100.00;100726.59;5269817;28;20165;-73
2024/03/25 06:09:36;;;;;;;26.27;9.43;;;;;;;3.08;100.00;100729.13;5267537;28;20016;-71
2024/03/25 06:12:08;;;;;;;24.70;9.52;;;;;;;3.24;100.00;100728.75;5269868;28;20020;-72
2024/03/25 06:14:38;;;;;;;33.15;9.93;;;;;;;3.47;100.00;100724.28;5263103;28;20052;-73
2024/03/25 06:17:09;;;;;;;29.08;9.70;;;;;;;3.76;100.00;100721.88;5267510;28;20141;-73
2024/03/25 06:19:39;;;;;;;21.10;8.18;;;;;;;4.11;100.00;100723.44;5266365;28;20027;-73
2024/03/25 06:22:10;;;;;;;25.40;8.93;;;;;;;4.56;100.00;100721.38;5268919;28;20031;-74
2024/03/25 06:24:41;;;;;;;17.50;7.15;;;;;;;4.96;100.00;100711.81;5267113;28;20024;-74
2024/03/25 06:27:11;;;;;;;23.08;8.23;;;;;;;5.35;100.00;100713.63;5268132;28;20023;-74
2024/03/25 06:29:43;;;;;;;20.95;8.23;;;;;;;5.57;100.00;100709.06;5266034;28;20024;-74
2024/03/25 06:35:05;;;;;;;20.08;9.18;;;;;;;5.95;100.00;100702.97;5265981;28;20487;-74
2024/03/25 06:37:36;;;;;;;15.30;8.40;;;;;;;6.13;100.00;100703.13;5267943;28;20103;-73
2024/03/25 06:40:08;;;;;;;21.80;8.32;;;;;;;6.20;100.00;100701.56;5266216;28;20548;-73
2024/03/25 06:42:38;;;;;;;26.08;9.40;;;;;;;6.32;100.00;100687.09;5267227;28;20031;-73
2024/03/25 06:45:09;;;;;;;32.60;11.20;;;;;;;6.44;100.00;100690.47;5267456;28;20023;-73
2024/03/25 06:47:40;;;;;;;34.53;10.55;;;;;;;6.50;100.00;100700.53;5266784;28;20036;-73
2024/03/25 06:50:10;;;;;;;27.02;9.88;;;;;;;6.49;100.00;100704.19;5266243;28;20022;-73
2024/03/25 06:52:41;;;;;;;27.15;10.13;;;;;;;6.45;100.00;100708.13;5265843;28;20020;-74
2024/03/25 06:55:12;;;;;;;29.77;10.70;;;;;;;6.47;100.00;100707.00;5268769;28;20085;-74
2024/03/25 06:57:42;;;;;;;38.85;13.90;;;;;;;6.40;100.00;100699.72;5269356;28;20433;-74
2024/03/25 07:00:13;;;;;;;43.85;14.57;;;;;;;6.40;100.00;100702.38;5265884;28;20034;-74
2024/03/25 07:02:44;;;;;;;44.58;15.20;;;;;;;6.40;100.00;100697.91;5263670;28;20022;-75
2024/03/25 07:05:14;;;;;;;34.65;13.32;;;;;;;6.51;100.00;100704.03;5268166;28;20077;-74
2024/03/25 07:07:45;;;;;;;45.95;14.13;;;;;;;6.56;100.00;100702.63;5265433;28;20024;-74
2024/03/25 07:10:16;;;;;;;39.15;12.77;;;;;;;6.74;100.00;100692.06;5267596;28;20027;-73
2024/03/25 07:12:46;;;;;;;40.60;14.15;;;;;;;6.97;100.00;100695.19;5267494;28;20032;-75
2024/03/25 07:15:17;;;;;;;46.45;13.77;;;;;;;7.25;100.00;100702.25;5266429;28;20051;-75
2024/03/25 07:17:47;;;;;;;42.45;14.80;;;;;;;7.61;100.00;100696.97;5266157;28;20024;-75
2024/03/25 07:20:19;;;;;;;35.03;14.20;;;;;;;7.98;100.00;100699.53;5268041;28;20032;-75
2024/03/25 07:22:49;;;;;;;52.45;16.45;;;;;;;8.27;100.00;100703.75;5264543;28;20055;-75
2024/03/25 07:25:20;;;;;;;47.28;15.25;;;;;;;8.42;100.00;100704.91;5268707;28;20043;-74
2024/03/25 07:27:51;;;;;;;49.22;15.43;;;;;;;8.58;100.00;100701.50;5268602;28;20020;-75
2024/03/25 07:30:25;;;;;;;45.92;15.27;;;;;;;8.79;100.00;100710.03;5270374;28;20028;-75
2024/03/25 07:32:56;;;;;;;44.97;14.85;;;;;;;9.07;100.00;100702.63;5266532;28;20020;-75
2024/03/25 07:35:27;;;;;;;42.30;15.88;;;;;;;9.22;100.00;100702.03;5265802;28;20016;-75
2024/03/25 07:37:58;;;;;;;45.00;15.10;;;;;;;9.55;100.00;100703.00;5269960;28;20063;-75
2024/03/25 07:40:28;;;;;;;41.50;16.42;;;;;;;9.70;100.00;100706.72;5267218;28;20016;-75
2024/03/25 07:42:59;;;;;;;42.75;14.98;;;;;;;9.88;100.00;100709.25;5269713;28;20546;-75
2024/03/25 07:45:29;;;;;;;44.35;13.95;;;;;;;10.14;100.00;100703.78;5269293;28;20022;-75
2024/03/25 07:48:00;;;;;;;41.42;13.25;;;;;;;10.31;100.00;100701.97;5268300;28;20028;-75
2024/03/25 07:50:30;;;;;;;36.10;12.90;;;;;;;10.48;100.00;100702.78;5267946;28;20085;-75
2024/03/25 07:53:01;;;;;;;38.42;12.63;;;;;;;10.22;100.00;100711.81;5256917;28;20029;-75
2024/03/25 07:55:31;;;;;;;31.65;12.50;;;;;;;10.19;100.00;100705.94;5265432;28;20068;-75
2024/03/25 07:58:02;;;;;;;31.80;12.23;;;;;;;10.15;100.00;100708.13;5266803;28;20761;-76
2024/03/25 08:00:34;;;;;;;32.45;11.48;;;;;;;10.22;100.00;100714.50;5267914;27;20012;-75
2024/03/25 08:03:05;;;;;;;25.50;9.90;;;;;;;9.94;100.00;100705.06;5265191;28;20626;-75
2024/03/25 08:05:35;;;;;;;24.95;9.57;;;;;;;10.01;100.00;100703.44;5268967;28;20027;-75
2024/03/25 08:08:06;;;;;;;26.73;10.70;;;;;;;10.12;100.00;100703.09;5273171;28;20020;-75
2024/03/25 08:10:37;;;;;;;23.83;9.60;;;;;;;9.96;100.00;100700.41;5266939;28;20027;-75
2024/03/25 08:13:08;;;;;;;28.15;9.43;;;;;;;9.93;100.00;100701.56;5267002;28;20469;-75
2024/03/25 08:15:38;;;;;;;33.25;10.02;;;;;;;9.96;100.00;100700.41;5267888;28;20024;-76
2024/03/25 08:18:09;;;;;;;32.47;9.73;;;;;;;10.01;100.00;100693.53;5272723;28;20043;-75
2024/03/25 08:20:40;;;;;;;28.80;10.80;;;;;;;10.22;100.00;100694.88;5270131;28;20481;-75
2024/03/25 08:23:10;;;;;;;24.60;9.77;;;;;;;10.23;100.00;100693.88;5266749;28;20030;-75
2024/03/25 08:25:41;;;;;;;25.80;9.05;;;;;;;10.16;100.00;100700.94;5270766;28;20012;-75
2024/03/25 08:28:11;;;;;;;31.35;9.93;;;;;;;10.27;100.00;100698.78;5272247;28;20023;-75
2024/03/25 08:30:42;;;;;;;27.35;9.38;;;;;;;10.47;100.00;100691.22;5268985;28;20068;-75
2024/03/25 08:33:12;;;;;;;28.38;9.57;;;;;;;10.93;100.00;100688.78;5269889;28;20035;-76
2024/03/25 08:35:43;;;;;;;34.80;9.13;;;;;;;11.49;100.00;100683.34;5268167;28;20043;-75
2024/03/25 08:38:13;;;;;;;26.55;9.45;;;;;;;11.93;100.00;100691.66;5270101;28;20585;-75
2024/03/25 08:40:44;;;;;;;26.05;9.23;;;;;;;12.23;100.00;100686.41;5268144;28;20024;-76
2024/03/25 08:43:14;;;;;;;25.08;9.70;;;;;;;12.60;100.00;100686.41;5269180;28;20038;-76
2024/03/25 08:45:46;;;;;;;25.70;9.13;;;;;;;13.18;100.00;100684.75;5268449;28;20020;-76
2024/03/25 08:48:17;;;;;;;28.52;9.65;;;;;;;13.57;100.00;100678.22;5270045;28;20060;-76
2024/03/25 08:50:47;;;;;;;24.55;10.23;;;;;;;13.72;100.00;100680.88;5269806;28;20012;-76
2024/03/25 08:53:18;;;;;;;24.73;8.63;;;;;;;13.81;100.00;100678.91;5264263;28;20545;-76
2024/03/25 08:55:48;;;;;;;22.23;7.93;;;;;;;13.94;100.00;100676.31;5270399;28;20056;-76
2024/03/25 08:58:19;;;;;;;20.88;7.63;;;;;;;13.64;100.00;100671.03;5268879;28;20019;-76
2024/03/25 09:00:49;;;;;;;21.20;8.07;;;;;;;13.62;100.00;100672.25;5268639;28;20023;-76
2024/03/25 09:03:20;;;;;;;22.25;7.15;;;;;;;13.57;100.00;100664.75;5269739;28;20030;-76
2024/03/25 09:05:50;;;;;;;28.33;8.35;;;;;;;13.26;100.00;100656.09;5267495;28;20402;-76
2024/03/25 09:08:22;;;;;;;19.13;7.18;;;;;;;13.62;100.00;100651.53;5270183;28;20085;-76
2024/03/25 09:11:02;;;;;;;23.85;7.97;;;;;;;14.14;100.00;100650.38;5266793;28;20028;-76
2024/03/25 09:13:33;;;;;;;21.58;7.93;;;;;;;14.50;100.00;100654.84;5268116;28;20069;-76
2024/03/25 09:16:05;;;;;;;18.40;6.43;;;;;;;14.22;100.00;100658.34;5270063;28;20425;-76
2024/03/25 09:18:35;;;;;;;25.40;7.28;;;;;;;13.94;100.00;100647.47;5268360;28;20023;-76
2024/03/25 09:21:06;;;;;;;13.15;6.53;;;;;;;14.05;100.00;100648.81;5269943;28;20402;-76
2024/03/25 09:23:37;;;;;;;17.25;6.43;;;;;;;13.76;100.00;100639.03;5255024;28;20020;-76
2024/03/25 09:26:07;;;;;;;18.83;6.65;;;;;;;13.83;100.00;100631.00;5268742;28;20464;-75
2024/03/25 09:28:37;;;;;;;21.00;6.80;;;;;;;13.96;100.00;100631.97;5267030;28;20032;-76
2024/03/25 09:31:08;;;;;;;24.23;7.03;;;;;;;14.19;100.00;100636.28;5269523;28;20028;-76
2024/03/25 09:33:38;;;;;;;18.73;6.88;;;;;;;14.39;100.00;100641.84;5260700;27;20034;-76
2024/03/25 09:36:11;;;;;;;21.85;7.05;;;;;;;14.53;100.00;100642.81;5267967;28;20059;-76
2024/03/25 09:38:41;;;;;;;19.17;7.10;;;;;;;14.67;100.00;100631.91;5266273;28;20377;-76
2024/03/25 09:41:12;;;;;;;18.35;6.85;;;;;;;14.62;100.00;100630.84;5268721;28;20023;-76
2024/03/25 09:43:47;;;;;;;22.80;7.00;;;;;;;14.36;100.00;100632.28;5265100;28;20035;-75
2024/03/25 09:46:18;;;;;;;18.40;7.13;;;;;;;14.46;100.00;100626.56;5269197;28;20068;-76
2024/03/25 09:48:52;;;;;;;12.77;5.50;;;;;;;14.60;100.00;100620.22;5262457;28;20023;-76
2024/03/25 09:51:22;;;;;;;13.20;5.63;;;;;;;14.30;100.00;100616.88;5269041;28;20023;-75
2024/03/25 09:53:54;;;;;;;16.83;4.82;;;;;;;14.22;100.00;100627.81;5265971;28;20485;-75
2024/03/25 09:56:24;;;;;;;18.20;5.03;;;;;;;14.06;100.00;100622.72;5269411;28;20032;-75
2024/03/25 09:58:55;;;;;;;12.57;4.95;;;;;;;14.11;100.00;100622.97;5266597;28;20035;-75
2024/03/25 10:01:26;;;;;;;18.83;5.47;;;;;;;14.07;100.00;100627.06;5267903;28;20047;-75
2024/03/25 10:03:56;;;;;;;16.38;5.63;;;;;;;14.05;100.00;100618.31;5270431;28;20144;-75
2024/03/25 10:06:27;;;;;;;13.43;5.03;;;;;;;14.31;100.00;100604.19;5249915;28;20027;-75
2024/03/25 10:08:57;;;;;;;12.65;4.00;;;;;;;14.40;100.00;100611.13;5267009;28;20919;-76
2024/03/25 10:11:28;;;;;;;18.02;4.55;;;;;;;14.42;100.00;100604.50;5267000;28;20150;-75
2024/03/25 10:13:58;;;;;;;14.45;4.18;;;;;;;14.65;100.00;100590.75;5269002;28;20020;-76
2024/03/25 10:16:29;;;;;;;17.52;5.22;;;;;;;14.82;100.00;100585.88;5265813;28;20732;-76
2024/03/25 10:18:59;;;;;;;11.40;4.90;;;;;;;14.62;100.00;100583.06;5264821;28;20028;-76
2024/03/25 10:21:31;;;;;;;18.42;5.32;;;;;;;14.18;100.00;100576.09;5272138;28;20129;-75
2024/03/25 10:24:04;;;;;;;13.40;4.78;;;;;;;14.59;100.00;100569.13;5264876;28;20073;-76
2024/03/25 10:26:37;;;;;;;13.70;4.85;;;;;;;14.58;100.00;100570.19;5266197;28;20048;-75
2024/03/25 10:29:08;;;;;;;14.60;3.92;;;;;;;14.65;100.00;100563.75;5266441;28;20145;-76
2024/03/25 10:31:38;;;;;;;8.10;3.55;;;;;;;14.71;100.00;100564.84;5271558;28;20068;-75
2024/03/25 10:34:09;;;;;;;9.82;3.55;;;;;;;14.59;100.00;100563.75;5249897;28;20462;-75
2024/03/25 10:36:39;;;;;;;8.60;2.85;;;;;;;14.58;100.00;100562.06;5266346;28;20024;-75
2024/03/25 10:39:12;;;;;;;7.43;3.10;;;;;;;14.57;100.00;100555.84;5272036;28;20819;-76
2024/03/25 10:41:44;;;;;;;10.88;3.90;;;;;;;14.44;100.00;100553.03;5253679;28;20081;-75
2024/03/25 10:44:15;;;;;;;8.18;3.42;;;;;;;14.59;100.00;100550.25;5269204;28;20029;-76
2024/03/25 10:46:46;;;;;;;9.85;2.92;;;;;;;14.61;100.00;100554.41;5264762;28;20428;-75
2024/03/25 10:49:26;;;;;;;10.77;3.28;;;;;;;14.63;100.00;100546.13;5273279;28;20046;-75
2024/03/25 10:52:00;;;;;;;9.50;2.85;;;;;;;14.54;100.00;100544.59;5263028;28;20016;-76
2024/03/25 10:54:31;;;;;;;6.32;3.22;;;;;;;14.83;100.00;100535.41;5272516;28;20381;-76
2024/03/25 10:57:03;;;;;;;13.00;3.65;;;;;;;15.16;100.00;100522.84;5256210;28;20024;-76
2024/03/25 10:59:39;;;;;;;10.65;4.13;;;;;;;15.23;100.00;100528.25;5269156;28;20028;-76
2024/03/25 11:02:10;;;;;;;8.88;3.35;;;;;;;15.28;100.00;100523.06;5274016;28;20032;-76
2024/03/25 11:04:42;;;;;;;10.35;3.13;;;;;;;15.28;100.00;100518.50;5262980;27;20477;-75
2024/03/25 11:07:14;;;;;;;11.38;3.20;;;;;;;15.21;100.00;100506.84;5271769;28;20027;-76
2024/03/25 11:09:44;;;;;;;15.30;3.90;;;;;;;15.28;100.00;100512.25;5265999;28;20069;-75
2024/03/25 11:12:15;;;;;;;16.33;3.10;;;;;;;15.55;100.00;100503.13;5267303;28;20024;-76
2024/03/25 11:14:45;;;;;;;8.07;3.42;;;;;;;15.57;100.00;100510.22;5268106;28;20023;-76
2024/03/25 11:17:16;;;;;;;8.13;3.00;;;;;;;15.31;100.00;100505.59;5267395;28;20023;-76
2024/03/25 11:19:47;;;;;;;9.68;3.13;;;;;;;14.99;100.00;100491.81;5264401;28;20653;-76
2024/03/25 11:22:24;;;;;;;12.95;3.10;;;;;;;15.23;100.00;100477.75;5269570;28;20058;-76
2024/03/25 11:24:55;;;;;;;7.90;3.55;;;;;;;15.51;100.00;100479.41;5267428;28;20508;-76
2024/03/25 11:27:26;;;;;;;11.02;3.05;;;;;;;15.35;100.00;100469.84;5272159;28;20037;-76
2024/03/25 11:29:56;;;;;;;10.15;3.30;;;;;;;15.06;100.00;100470.22;5267422;28;20047;-76
2024/03/25 11:32:28;;;;;;;12.38;2.72;;;;;;;15.26;100.00;100463.84;5267857;28;20036;-76